EFRO

Rovaniemi Airport

Rovaniemi, Finland
METAR EFRO 151320Z AUTO 09006KT 060V140 6000 -SN FEW008 BKN013 OVC017 M04/M06 Q0996
Observed Flight Rules
Dec-15 @ 13:20 UTC (25 minutes ago) Marginal Visual Flight Rules
Wind Visibility Clouds Conditions
90° at 6 knots 6,003 meters
  • Few at 800' AGL
  • Broken at 1,300' AGL
  • Overcast at 1,700' AGL
  • Light Snow
Temperatures Readings
Current -4°C / 25°F
Dewpoint -6°C / 21°F
Humidity 86%
Altimeter 29.41" Hg
Pressure 996 hPa
Elevation 201
METAR EFRO 151320Z AUTO 09006KT 060V140 6000 -SN FEW008 BKN013 OVC017 M04/M06 Q0996
Observed Flight Rules
Dec-15 @ 13:20 UTC
(25 minutes ago)
MVFR
Wind Visibility
90° at 6 knots 6,003 meters
Clouds
  • Few at 800' AGL
  • Broken at 1,300' AGL
  • Overcast at 1,700' AGL
Conditions
  • Light Snow
Temperature Dewpoint
-4°C / 25°F -6°C / 21°F
Humidity Altimeter Pressure
86% 29.41" Hg 996 hPa